Time;durP1;ratioP1;P1;durP2;ratioP2;P2;SDS_P1;SDS_P2;PMS_P1;PMS_P2;Temp;Humidity;BMP_temperature;BMP_pressure;BME280_temperature;BME280_humidity;BME280_pressure;Samples;Min_cycle;Max_cycle;Signal;HPM_P1;HPM_P2
2020/12/16 00:02:00;;;;;;;40.60;29.08;;;6.70;94.60;;;;;;5066237;28;20071;-75
2020/12/16 00:04:26;;;;;;;43.85;29.85;;;6.70;94.60;;;;;;5063846;28;20051;-74
2020/12/16 00:06:52;;;;;;;44.10;28.80;;;6.60;94.60;;;;;;5065797;28;20467;-74
2020/12/16 00:09:17;;;;;;;41.83;27.83;;;6.60;94.60;;;;;;5061957;28;20021;-77
2020/12/16 00:11:43;;;;;;;40.60;26.95;;;6.60;94.60;;;;;;5065124;28;20032;-75
2020/12/16 00:14:09;;;;;;;42.95;28.30;;;6.60;94.60;;;;;;5065973;28;20444;-74
2020/12/16 00:16:34;;;;;;;35.13;26.55;;;6.60;94.60;;;;;;5068082;28;20446;-74
2020/12/16 00:19:00;;;;;;;38.80;26.98;;;6.50;94.60;;;;;;5065731;28;20033;-74
2020/12/16 00:21:26;;;;;;;41.00;28.85;;;6.50;94.70;;;;;;5067333;28;20085;-77
2020/12/16 00:23:51;;;;;;;44.88;28.38;;;6.50;94.60;;;;;;5063358;28;20028;-76
2020/12/16 00:26:17;;;;;;;42.88;27.40;;;6.50;94.70;;;;;;5063418;28;20040;-79
2020/12/16 00:28:44;;;;;;;40.97;27.65;;;6.40;94.70;;;;;;5062670;28;20113;-75
2020/12/16 00:31:12;;;;;;;40.17;27.50;;;6.50;94.70;;;;;;5062933;28;20542;-78
2020/12/16 00:33:38;;;;;;;42.58;27.02;;;6.50;94.80;;;;;;5065707;28;20055;-77
2020/12/16 00:36:03;;;;;;;51.10;30.63;;;6.50;94.80;;;;;;5064374;28;20135;-74
2020/12/16 00:38:29;;;;;;;50.92;32.53;;;6.50;94.90;;;;;;5064426;28;20494;-74
2020/12/16 00:40:55;;;;;;;48.00;32.72;;;6.50;94.90;;;;;;5061400;28;20035;-75
2020/12/16 00:43:21;;;;;;;45.13;30.90;;;6.60;94.90;;;;;;5060626;28;20085;-76
2020/12/16 00:45:46;;;;;;;49.95;31.80;;;6.60;94.80;;;;;;5057965;28;20032;-74
2020/12/16 00:48:12;;;;;;;50.85;31.30;;;6.50;94.80;;;;;;5063279;28;20068;-74
2020/12/16 00:50:38;;;;;;;48.95;31.02;;;6.50;94.80;;;;;;5056727;28;20120;-75
2020/12/16 00:53:03;;;;;;;54.05;33.03;;;6.50;94.80;;;;;;5063831;28;20047;-74
2020/12/16 00:55:29;;;;;;;50.40;32.80;;;6.50;94.90;;;;;;5053071;28;20115;-74
2020/12/16 00:57:55;;;;;;;58.53;35.53;;;6.50;94.90;;;;;;5057705;28;20048;-74
2020/12/16 01:00:21;;;;;;;49.90;33.83;;;6.50;94.90;;;;;;5063396;28;20036;-74
2020/12/16 01:02:48;;;;;;;57.30;35.60;;;6.60;94.90;;;;;;5062973;28;20037;-75
2020/12/16 01:05:19;;;;;;;59.85;35.60;;;6.60;95.00;;;;;;5064059;28;20036;-74
2020/12/16 01:07:44;;;;;;;49.03;32.90;;;6.60;94.90;;;;;;5060576;28;20029;-74
2020/12/16 01:10:12;;;;;;;55.30;31.88;;;6.50;94.90;;;;;;5063605;28;20370;-74
2020/12/16 01:12:39;;;;;;;51.33;32.70;;;6.50;94.80;;;;;;5057908;28;20429;-75
2020/12/16 01:15:16;;;;;;;48.28;31.88;;;6.50;94.90;;;;;;5060909;28;20648;-76
2020/12/16 01:17:43;;;;;;;46.85;31.23;;;6.40;94.90;;;;;;5063847;28;20032;-74
2020/12/16 01:20:10;;;;;;;55.85;31.77;;;6.40;94.90;;;;;;5063118;28;20081;-74
2020/12/16 01:22:40;;;;;;;46.08;30.35;;;6.40;94.90;;;;;;5062183;28;20033;-75
2020/12/16 01:25:06;;;;;;;48.95;32.47;;;6.40;95.00;;;;;;5059523;28;20037;-77
2020/12/16 01:27:32;;;;;;;52.00;34.65;;;6.40;95.00;;;;;;5063251;28;20131;-74
2020/12/16 01:29:58;;;;;;;59.47;34.97;;;6.40;95.00;;;;;;5051391;28;20156;-74
2020/12/16 01:32:24;;;;;;;53.45;35.15;;;6.40;95.10;;;;;;5060235;28;20040;-74
2020/12/16 01:34:49;;;;;;;54.13;34.65;;;6.40;95.10;;;;;;5061983;28;20028;-74
2020/12/16 01:37:15;;;;;;;56.03;33.15;;;6.40;95.10;;;;;;5063706;28;20535;-75
2020/12/16 01:39:41;;;;;;;48.60;31.67;;;6.40;95.10;;;;;;5067499;28;20102;-76
2020/12/16 01:42:07;;;;;;;49.60;31.88;;;6.40;95.10;;;;;;5063385;28;20044;-76
2020/12/16 01:44:32;;;;;;;50.13;31.23;;;6.40;95.10;;;;;;5063930;28;20104;-73
2020/12/16 01:47:01;;;;;;;47.28;31.77;;;6.40;95.10;;;;;;5061503;28;20059;-75
2020/12/16 01:49:26;;;;;;;47.67;31.65;;;6.40;95.20;;;;;;5058687;28;20044;-75
2020/12/16 01:52:07;;;;;;;48.78;31.48;;;6.40;95.10;;;;;;5066401;28;20025;-74
2020/12/16 01:54:35;;;;;;;47.83;31.98;;;6.40;95.10;;;;;;5064753;28;20032;-79
2020/12/16 01:57:03;;;;;;;51.35;30.95;;;6.40;95.10;;;;;;5059919;28;20033;-75
2020/12/16 01:59:34;;;;;;;44.92;29.80;;;6.30;95.10;;;;;;5064990;28;20086;-79
2020/12/16 02:02:02;;;;;;;43.75;29.60;;;6.30;95.10;;;;;;5063559;28;20024;-75
2020/12/16 02:04:33;;;;;;;41.30;28.35;;;6.30;95.10;;;;;;5067259;28;20107;-78
2020/12/16 02:07:04;;;;;;;47.63;29.92;;;6.30;95.10;;;;;;5056805;28;20101;-73
2020/12/16 02:09:43;;;;;;;45.30;30.88;;;6.30;95.20;;;;;;5057723;28;20026;-79
2020/12/16 02:12:21;;;;;;;42.05;27.77;;;6.40;95.20;;;;;;5047326;28;20110;-74
2020/12/16 02:14:46;;;;;;;44.80;27.33;;;6.30;95.20;;;;;;5043844;28;20045;-74
2020/12/16 02:17:13;;;;;;;44.75;27.50;;;6.40;95.20;;;;;;5037839;28;20189;-75
2020/12/16 02:20:04;;;;;;;46.67;28.25;;;6.40;95.30;;;;;;5045766;28;20467;-75
2020/12/16 02:22:30;;;;;;;47.33;28.13;;;6.40;95.30;;;;;;5047666;28;20031;-73
2020/12/16 02:25:13;;;;;;;46.80;26.83;;;6.40;95.30;;;;;;5039780;28;20033;-75
2020/12/16 02:27:40;;;;;;;46.63;26.83;;;6.30;95.30;;;;;;5043475;28;20033;-74
2020/12/16 02:30:13;;;;;;;42.80;27.45;;;6.30;95.30;;;;;;5043240;28;20033;-81
2020/12/16 02:32:40;;;;;;;46.95;26.77;;;6.40;95.30;;;;;;5047948;28;20039;-76
2020/12/16 02:35:07;;;;;;;47.13;26.75;;;6.40;95.40;;;;;;5045571;28;20033;-75
2020/12/16 02:37:33;;;;;;;49.83;27.67;;;6.40;95.40;;;;;;5051283;28;20052;-73
2020/12/16 02:39:58;;;;;;;45.55;26.83;;;6.40;95.30;;;;;;5049194;28;20541;-74
2020/12/16 02:42:26;;;;;;;47.85;26.23;;;6.40;95.30;;;;;;5046102;28;20033;-75
2020/12/16 02:44:53;;;;;;;41.25;25.33;;;6.50;95.30;;;;;;5046395;28;20107;-74
2020/12/16 02:47:19;;;;;;;38.63;24.13;;;6.50;95.30;;;;;;5046863;28;20036;-76
2020/12/16 02:49:45;;;;;;;46.78;26.45;;;6.50;95.30;;;;;;5058611;28;20043;-76
2020/12/16 02:52:11;;;;;;;42.22;25.02;;;6.50;95.30;;;;;;5063302;28;20036;-74
2020/12/16 02:54:37;;;;;;;38.55;23.48;;;6.50;95.20;;;;;;5072196;28;20521;-74
2020/12/16 02:57:03;;;;;;;48.22;24.67;;;6.50;95.30;;;;;;5065663;28;20029;-74
2020/12/16 02:59:29;;;;;;;35.22;22.83;;;6.50;95.30;;;;;;5072569;28;20052;-73
2020/12/16 03:01:56;;;;;;;37.92;22.98;;;6.50;95.20;;;;;;5047005;28;20068;-74
2020/12/16 03:04:23;;;;;;;36.10;22.08;;;6.40;95.30;;;;;;5051545;28;20033;-76
2020/12/16 03:06:51;;;;;;;33.35;20.33;;;6.40;95.30;;;;;;5059182;28;20083;-74
2020/12/16 03:09:18;;;;;;;37.95;22.38;;;6.50;95.40;;;;;;5068187;28;20475;-73
2020/12/16 03:11:44;;;;;;;39.67;24.13;;;6.50;95.40;;;;;;5061981;28;20462;-76
2020/12/16 03:14:10;;;;;;;32.53;21.20;;;6.60;95.40;;;;;;5045617;28;20367;-74
2020/12/16 03:16:36;;;;;;;34.85;20.92;;;6.60;95.30;;;;;;5048368;28;20119;-75
2020/12/16 03:19:03;;;;;;;31.77;18.55;;;6.60;95.30;;;;;;5047246;28;20055;-73
2020/12/16 03:21:29;;;;;;;35.92;20.63;;;6.60;95.30;;;;;;5047474;28;20032;-73
2020/12/16 03:23:55;;;;;;;29.63;17.63;;;6.70;95.30;;;;;;5031337;28;20427;-73
2020/12/16 03:26:21;;;;;;;29.60;18.65;;;6.70;95.20;;;;;;5038347;28;20036;-76
2020/12/16 03:28:47;;;;;;;30.13;17.95;;;6.60;95.20;;;;;;5041587;28;20375;-76
2020/12/16 03:31:14;;;;;;;32.97;18.77;;;6.60;95.10;;;;;;5036696;28;20065;-71
2020/12/16 03:33:44;;;;;;;27.73;16.95;;;6.60;95.10;;;;;;5045643;28;20078;-72
2020/12/16 03:36:16;;;;;;;30.55;18.08;;;6.60;95.10;;;;;;5035032;28;20367;-72
2020/12/16 03:38:42;;;;;;;28.67;17.33;;;6.60;95.10;;;;;;5035731;28;20697;-72
2020/12/16 03:41:08;;;;;;;33.38;18.52;;;6.60;95.10;;;;;;5041105;28;20021;-72
2020/12/16 03:43:34;;;;;;;30.58;19.52;;;6.60;95.10;;;;;;5036839;28;20494;-73
2020/12/16 03:45:59;;;;;;;31.92;20.25;;;6.50;95.10;;;;;;5033570;28;20108;-72
2020/12/16 03:48:25;;;;;;;34.10;20.23;;;6.50;95.10;;;;;;5033210;28;20112;-77
2020/12/16 03:50:51;;;;;;;30.98;19.45;;;6.50;95.10;;;;;;5046974;28;20035;-73
2020/12/16 03:53:16;;;;;;;34.80;21.23;;;6.50;95.10;;;;;;5059751;28;20129;-76
2020/12/16 03:55:42;;;;;;;35.03;20.33;;;6.40;95.10;;;;;;5058168;28;20052;-73
2020/12/16 03:58:07;;;;;;;30.55;19.77;;;6.40;95.10;;;;;;5029854;28;20025;-74
2020/12/16 04:00:34;;;;;;;27.95;19.35;;;6.50;95.10;;;;;;5051351;28;20028;-72
2020/12/16 04:02:59;;;;;;;28.90;18.05;;;6.50;95.10;;;;;;5067670;28;20029;-74
2020/12/16 04:05:25;;;;;;;28.05;19.30;;;6.50;95.00;;;;;;5068578;28;20020;-73
2020/12/16 04:07:51;;;;;;;33.97;20.48;;;6.50;95.00;;;;;;5066482;28;20106;-73
2020/12/16 04:10:16;;;;;;;30.25;19.75;;;6.40;94.90;;;;;;5053874;28;20120;-77
2020/12/16 04:12:42;;;;;;;29.58;19.88;;;6.40;94.90;;;;;;5063036;28;20032;-73
2020/12/16 04:15:08;;;;;;;33.15;21.45;;;6.50;94.90;;;;;;5042898;28;20033;-73
2020/12/16 04:17:34;;;;;;;35.95;22.67;;;6.40;94.90;;;;;;5056789;28;20115;-73
2020/12/16 04:20:01;;;;;;;36.83;24.48;;;6.50;94.80;;;;;;5056247;28;20551;-73
2020/12/16 04:22:28;;;;;;;35.40;24.17;;;6.50;94.80;;;;;;5058301;28;20102;-72
2020/12/16 04:24:55;;;;;;;35.00;24.50;;;6.50;94.80;;;;;;5038989;28;20040;-73
2020/12/16 04:27:20;;;;;;;37.45;24.67;;;6.60;94.80;;;;;;5051701;28;20390;-73
2020/12/16 04:29:46;;;;;;;39.95;23.88;;;6.60;94.80;;;;;;5058214;28;20029;-77
2020/12/16 04:32:13;;;;;;;35.85;23.88;;;6.60;94.80;;;;;;5052233;28;20046;-73
2020/12/16 04:34:39;;;;;;;36.75;24.38;;;6.60;94.90;;;;;;5041512;28;20463;-73
2020/12/16 04:37:05;;;;;;;36.25;23.02;;;6.60;94.90;;;;;;5036253;28;20060;-77
2020/12/16 04:39:30;;;;;;;34.67;24.30;;;6.60;94.90;;;;;;5040783;28;20114;-73
2020/12/16 04:41:56;;;;;;;33.78;21.95;;;6.70;94.90;;;;;;5032946;28;20124;-73
2020/12/16 04:44:22;;;;;;;36.38;21.65;;;6.70;94.90;;;;;;5039541;28;20029;-74
2020/12/16 04:46:48;;;;;;;30.52;19.55;;;6.80;94.90;;;;;;5042664;28;20033;-73
2020/12/16 04:49:14;;;;;;;29.50;18.35;;;6.70;94.90;;;;;;5037186;28;20485;-73
2020/12/16 04:51:42;;;;;;;31.65;20.10;;;6.70;94.90;;;;;;5041067;28;20037;-73
2020/12/16 04:54:08;;;;;;;28.95;19.40;;;6.80;95.00;;;;;;5043878;28;20535;-73
2020/12/16 04:56:35;;;;;;;32.13;19.67;;;6.90;95.00;;;;;;5063178;28;20033;-72
2020/12/16 04:59:01;;;;;;;33.20;21.80;;;6.80;95.00;;;;;;5066316;28;20040;-74
2020/12/16 05:01:27;;;;;;;29.52;19.65;;;6.80;95.00;;;;;;5053982;28;20116;-74
2020/12/16 05:03:52;;;;;;;32.30;19.75;;;6.90;95.10;;;;;;5039914;28;20021;-74
2020/12/16 05:06:39;;;;;;;28.75;19.23;;;6.90;95.10;;;;;;5059266;28;20037;-74
2020/12/16 05:09:15;;;;;;;30.58;18.98;;;7.00;95.20;;;;;;5063380;28;20070;-74
2020/12/16 05:11:50;;;;;;;31.63;19.95;;;7.00;95.10;;;;;;5066800;28;20032;-77
2020/12/16 05:14:18;;;;;;;32.83;19.85;;;7.00;95.20;;;;;;5068777;28;20040;-75
2020/12/16 05:17:05;;;;;;;30.83;19.42;;;7.10;95.10;;;;;;5069533;28;20074;-74
2020/12/16 05:19:38;;;;;;;29.42;20.38;;;7.00;95.10;;;;;;5065580;28;20553;-74
2020/12/16 05:22:23;;;;;;;28.90;18.10;;;7.00;95.10;;;;;;5048261;28;20033;-74
2020/12/16 05:25:00;;;;;;;26.92;17.92;;;7.10;95.00;;;;;;5056706;28;20081;-74
2020/12/16 05:27:30;;;;;;;26.00;18.13;;;7.10;95.00;;;;;;5052190;28;20175;-75
2020/12/16 05:30:07;;;;;;;26.92;17.05;;;7.10;95.00;;;;;;5066830;28;20037;-76
2020/12/16 05:32:36;;;;;;;27.95;17.05;;;7.10;95.00;;;;;;5048142;28;20064;-74
2020/12/16 05:35:20;;;;;;;25.67;16.95;;;7.10;95.00;;;;;;5039686;28;20483;-74
2020/12/16 05:37:46;;;;;;;25.52;15.35;;;7.10;95.00;;;;;;5042027;28;20025;-73
2020/12/16 05:40:15;;;;;;;23.65;16.17;;;7.10;94.90;;;;;;5039444;28;20360;-74
2020/12/16 05:42:41;;;;;;;26.20;15.80;;;7.10;94.90;;;;;;5042283;28;20025;-75
2020/12/16 05:45:17;;;;;;;26.25;16.65;;;7.10;94.90;;;;;;5042861;28;20039;-74
2020/12/16 05:48:04;;;;;;;25.20;16.48;;;7.10;95.00;;;;;;5044798;28;20480;-79
2020/12/16 05:50:36;;;;;;;31.52;18.25;;;7.10;95.00;;;;;;5045850;28;20060;-73
2020/12/16 05:53:12;;;;;;;22.73;15.60;;;7.10;94.90;;;;;;5066900;28;20057;-75
2020/12/16 05:55:38;;;;;;;24.40;15.52;;;7.20;94.90;;;;;;5063812;28;20120;-73
2020/12/16 05:58:13;;;;;;;22.13;15.13;;;7.20;94.80;;;;;;5063800;28;20132;-74
2020/12/16 06:00:58;;;;;;;23.20;15.35;;;7.20;94.80;;;;;;5065895;28;20037;-73
2020/12/16 06:03:29;;;;;;;22.35;15.05;;;7.20;94.70;;;;;;5059833;28;20511;-74
2020/12/16 06:06:00;;;;;;;25.35;15.85;;;7.20;94.70;;;;;;5062143;28;20033;-74
2020/12/16 06:08:44;;;;;;;21.20;14.88;;;7.20;94.70;;;;;;5062716;28;20032;-74
2020/12/16 06:11:12;;;;;;;22.95;15.85;;;7.20;94.70;;;;;;5066377;28;20118;-74
2020/12/16 06:13:44;;;;;;;21.80;15.95;;;7.20;94.70;;;;;;5062763;28;20033;-77
2020/12/16 06:16:10;;;;;;;26.15;16.60;;;7.30;94.70;;;;;;5059040;28;20028;-76
2020/12/16 06:18:47;;;;;;;24.58;16.55;;;7.30;94.60;;;;;;5054179;28;20055;-75
2020/12/16 06:21:14;;;;;;;23.65;16.60;;;7.30;94.60;;;;;;5057254;28;20037;-74
2020/12/16 06:23:43;;;;;;;28.00;17.52;;;7.40;94.50;;;;;;5064316;28;20040;-75
2020/12/16 06:26:15;;;;;;;31.73;18.05;;;7.40;94.50;;;;;;5066782;28;20089;-74
2020/12/16 06:28:44;;;;;;;27.92;17.13;;;7.30;94.50;;;;;;5059155;28;20105;-74
2020/12/16 06:31:27;;;;;;;27.15;16.83;;;7.40;94.50;;;;;;5062513;28;20036;-76
2020/12/16 06:34:10;;;;;;;27.42;17.92;;;7.40;94.50;;;;;;5066608;28;20047;-75
2020/12/16 06:36:39;;;;;;;24.60;16.23;;;7.40;94.50;;;;;;5063663;28;20231;-75
2020/12/16 06:39:15;;;;;;;24.92;16.05;;;7.50;94.60;;;;;;5059167;28;20391;-80
2020/12/16 06:41:54;;;;;;;26.17;16.20;;;7.40;94.50;;;;;;5065559;28;20420;-74
2020/12/16 06:44:21;;;;;;;22.45;15.50;;;7.50;94.60;;;;;;5063827;28;20437;-77
2020/12/16 06:46:51;;;;;;;26.08;16.50;;;7.50;94.60;;;;;;5071560;28;20036;-78
2020/12/16 06:49:22;;;;;;;24.13;17.02;;;7.50;94.50;;;;;;5057095;28;20090;-75
2020/12/16 06:51:49;;;;;;;29.65;16.25;;;7.50;94.50;;;;;;5063198;28;20036;-78
2020/12/16 06:54:17;;;;;;;23.75;16.08;;;7.60;94.50;;;;;;5064137;28;20044;-76
2020/12/16 06:56:45;;;;;;;24.23;15.38;;;7.50;94.50;;;;;;5061076;28;20040;-77
2020/12/16 06:59:15;;;;;;;25.02;16.88;;;7.60;94.50;;;;;;5063148;28;20115;-75
2020/12/16 07:01:41;;;;;;;24.77;16.90;;;7.60;94.40;;;;;;5058413;28;20525;-75
2020/12/16 07:04:12;;;;;;;26.70;17.40;;;7.60;94.40;;;;;;5058805;28;20116;-80
2020/12/16 07:06:40;;;;;;;23.55;16.30;;;7.60;94.30;;;;;;5058682;28;20119;-75
2020/12/16 07:09:22;;;;;;;24.20;16.08;;;7.60;94.20;;;;;;5064584;28;20039;-83
2020/12/16 07:11:55;;;;;;;23.65;16.25;;;7.60;94.10;;;;;;5073539;28;20028;-74
2020/12/16 07:14:31;;;;;;;27.30;15.90;;;7.60;94.10;;;;;;5067553;28;20047;-74
2020/12/16 07:17:10;;;;;;;23.33;16.58;;;7.60;94.10;;;;;;5060871;28;20044;-75
2020/12/16 07:19:37;;;;;;;26.75;17.25;;;7.60;94.00;;;;;;5056874;28;20033;-74
2020/12/16 07:22:21;;;;;;;26.25;17.40;;;7.60;93.90;;;;;;5062100;28;20047;-74
2020/12/16 07:24:51;;;;;;;27.50;17.92;;;7.60;93.90;;;;;;5058459;28;20039;-76
2020/12/16 07:27:19;;;;;;;28.92;19.35;;;7.70;93.90;;;;;;5051454;28;20091;-78
2020/12/16 07:30:14;;;;;;;26.92;18.15;;;7.70;93.80;;;;;;5060792;28;20478;-75
2020/12/16 07:32:40;;;;;;;32.58;20.88;;;7.70;93.80;;;;;;5052247;28;20505;-74
2020/12/16 07:35:06;;;;;;;36.13;22.95;;;7.70;93.60;;;;;;5063573;28;20033;-78
2020/12/16 07:37:32;;;;;;;36.40;21.35;;;7.70;93.60;;;;;;5055291;28;20127;-75
2020/12/16 07:40:00;;;;;;;29.30;19.30;;;7.70;93.70;;;;;;5061751;28;20036;-74
2020/12/16 07:42:31;;;;;;;31.83;19.92;;;7.60;93.60;;;;;;5058807;28;20036;-75
2020/12/16 07:44:59;;;;;;;30.77;19.30;;;7.60;93.70;;;;;;5056347;28;20053;-74
2020/12/16 07:47:26;;;;;;;33.50;19.38;;;7.70;93.70;;;;;;5057827;28;20036;-77
2020/12/16 07:49:53;;;;;;;22.25;15.95;;;7.60;93.70;;;;;;5062343;28;20033;-75
2020/12/16 07:52:30;;;;;;;23.20;14.75;;;7.70;93.80;;;;;;5058329;28;20390;-77
2020/12/16 07:54:56;;;;;;;25.08;14.70;;;7.70;93.70;;;;;;5060209;28;20135;-74
2020/12/16 07:57:29;;;;;;;23.10;14.63;;;7.70;93.60;;;;;;5063364;28;20032;-75
2020/12/16 07:59:55;;;;;;;20.75;13.32;;;7.70;93.50;;;;;;5061400;28;20510;-74
2020/12/16 08:02:21;;;;;;;19.70;13.32;;;7.70;93.50;;;;;;5063804;28;20079;-76
2020/12/16 08:04:55;;;;;;;17.98;12.48;;;7.80;93.40;;;;;;5059295;28;20036;-78
2020/12/16 08:07:21;;;;;;;20.88;11.60;;;7.80;93.30;;;;;;5060804;28;20040;-75
2020/12/16 08:09:56;;;;;;;17.75;11.10;;;7.80;93.20;;;;;;5062406;28;20039;-75
2020/12/16 08:12:22;;;;;;;19.20;10.23;;;7.90;93.10;;;;;;5057262;28;20041;-76
2020/12/16 08:14:48;;;;;;;14.10;8.90;;;7.80;93.00;;;;;;5062675;28;20505;-75
2020/12/16 08:17:14;;;;;;;13.95;8.50;;;7.90;92.90;;;;;;5062639;28;20494;-75
2020/12/16 08:19:40;;;;;;;12.00;8.02;;;7.90;92.70;;;;;;5062856;28;20067;-78
2020/12/16 08:22:13;;;;;;;12.88;7.10;;;8.00;92.40;;;;;;5061887;28;20491;-75
2020/12/16 08:24:39;;;;;;;11.07;7.03;;;8.00;92.10;;;;;;5064735;28;20123;-74
2020/12/16 08:27:05;;;;;;;11.85;6.57;;;8.10;92.00;;;;;;5062026;28;20116;-75
2020/12/16 08:29:32;;;;;;;10.15;6.43;;;8.10;91.90;;;;;;5060715;28;20029;-74
2020/12/16 08:31:59;;;;;;;13.75;6.05;;;8.10;91.80;;;;;;5062348;28;20029;-75
2020/12/16 08:34:26;;;;;;;11.48;5.40;;;8.10;91.50;;;;;;5063390;28;20056;-75
2020/12/16 08:36:54;;;;;;;9.88;5.72;;;8.10;91.50;;;;;;5062323;28;20032;-74
2020/12/16 08:39:24;;;;;;;10.35;5.63;;;8.10;91.40;;;;;;5061675;28;20122;-74
2020/12/16 08:41:54;;;;;;;10.52;5.18;;;8.20;91.30;;;;;;5062118;28;20119;-75
2020/12/16 08:44:22;;;;;;;12.82;5.78;;;8.20;91.10;;;;;;5061749;28;20041;-74
2020/12/16 08:46:48;;;;;;;8.93;5.00;;;8.30;90.80;;;;;;5059773;28;20131;-75
2020/12/16 08:49:14;;;;;;;9.02;4.78;;;8.30;90.70;;;;;;5060594;28;20036;-75
2020/12/16 08:51:42;;;;;;;12.13;4.85;;;8.30;90.40;;;;;;5062510;28;20044;-74
2020/12/16 08:54:22;;;;;;;10.10;5.28;;;8.30;90.30;;;;;;5051501;28;20372;-75
2020/12/16 08:56:57;;;;;;;11.27;5.70;;;8.30;90.10;;;;;;5061780;28;20119;-75
2020/12/16 08:59:22;;;;;;;;;;;8.40;90.20;;;;;;5065455;28;20774;-74
2020/12/16 09:02:06;;;;;;;9.82;5.38;;;8.50;90.10;;;;;;5060423;28;19912;-74
2020/12/16 09:04:37;;;;;;;11.55;5.55;;;8.50;90.00;;;;;;5062946;28;20052;-74
2020/12/16 09:07:03;;;;;;;11.57;7.00;;;8.60;89.80;;;;;;5056193;28;20032;-75
2020/12/16 09:09:29;;;;;;;11.57;7.32;;;8.60;89.80;;;;;;5057539;28;20051;-74
2020/12/16 09:11:55;;;;;;;11.65;7.05;;;8.60;89.80;;;;;;5061886;28;20041;-76
2020/12/16 09:14:21;;;;;;;10.18;6.40;;;8.70;89.50;;;;;;5059793;28;20526;-74
2020/12/16 09:16:47;;;;;;;13.02;7.28;;;8.80;89.50;;;;;;5063168;28;20109;-75
2020/12/16 09:19:31;;;;;;;15.05;6.85;;;8.80;89.10;;;;;;5059798;28;20827;-74
2020/12/16 09:22:00;;;;;;;14.75;6.53;;;8.90;89.20;;;;;;5059199;28;20037;-74
2020/12/16 09:24:26;;;;;;;10.27;6.00;;;9.00;88.90;;;;;;5059415;28;20065;-75
2020/12/16 09:26:55;;;;;;;12.32;6.43;;;9.10;88.80;;;;;;5054941;28;20082;-74
2020/12/16 09:29:27;;;;;;;10.93;6.05;;;9.10;88.50;;;;;;5064685;28;20039;-75
2020/12/16 09:32:17;;;;;;;11.73;6.85;;;9.30;87.80;;;;;;5061532;28;20042;-80
2020/12/16 09:34:45;;;;;;;11.82;6.95;;;9.30;87.80;;;;;;5062822;28;20132;-74
2020/12/16 09:37:16;;;;;;;12.10;6.65;;;9.30;87.80;;;;;;5051614;28;20083;-74
2020/12/16 09:39:43;;;;;;;11.45;6.90;;;9.30;87.90;;;;;;5067333;28;20068;-75
2020/12/16 09:42:11;;;;;;;12.38;6.43;;;9.30;87.80;;;;;;5057481;28;20040;-76
2020/12/16 09:44:37;;;;;;;11.82;6.32;;;9.30;87.90;;;;;;5063651;28;20035;-75
2020/12/16 09:47:13;;;;;;;12.88;6.80;;;9.40;87.80;;;;;;5058233;28;20120;-74
2020/12/16 09:49:40;;;;;;;12.48;7.00;;;9.50;87.80;;;;;;5060509;28;20042;-75
2020/12/16 09:52:22;;;;;;;12.50;7.60;;;9.60;87.30;;;;;;5058626;28;20520;-76
2020/12/16 09:54:48;;;;;;;11.85;7.32;;;9.50;87.10;;;;;;5058209;28;20032;-78
2020/12/16 09:57:13;;;;;;;15.18;7.00;;;9.50;87.40;;;;;;5059422;28;20064;-75
2020/12/16 09:59:39;;;;;;;11.45;7.65;;;9.60;87.60;;;;;;5064913;28;20629;-75
2020/12/16 10:02:05;;;;;;;13.55;7.85;;;9.60;87.90;;;;;;5063463;28;20410;-75
2020/12/16 10:04:31;;;;;;;13.18;7.82;;;9.60;87.40;;;;;;5059666;28;20024;-75
2020/12/16 10:06:56;;;;;;;13.32;7.78;;;9.70;87.40;;;;;;5061151;28;20033;-77
2020/12/16 10:09:22;;;;;;;15.23;8.30;;;9.80;87.50;;;;;;5064184;28;20551;-76
2020/12/16 10:11:49;;;;;;;14.00;8.63;;;9.90;87.40;;;;;;5064491;28;20123;-76
2020/12/16 10:14:18;;;;;;;14.15;8.60;;;9.90;87.10;;;;;;5054592;28;20033;-77
2020/12/16 10:16:48;;;;;;;11.27;8.55;;;10.00;87.00;;;;;;5060941;28;20032;-79
2020/12/16 10:19:16;;;;;;;14.90;8.45;;;10.00;86.80;;;;;;5062711;28;20036;-75
2020/12/16 10:21:47;;;;;;;11.75;7.90;;;10.10;86.70;;;;;;5062727;28;20029;-75
2020/12/16 10:24:12;;;;;;;13.60;8.30;;;10.00;86.80;;;;;;5073251;28;20051;-76
2020/12/16 10:26:38;;;;;;;12.18;7.47;;;10.00;86.50;;;;;;5063070;28;20535;-77
2020/12/16 10:29:04;;;;;;;10.77;7.10;;;10.00;86.50;;;;;;5065176;28;20480;-77
2020/12/16 10:31:29;;;;;;;12.98;7.10;;;10.00;86.80;;;;;;5063971;28;20028;-77
2020/12/16 10:33:55;;;;;;;12.55;7.28;;;10.10;86.60;;;;;;5064997;28;20029;-74
2020/12/16 10:36:21;;;;;;;11.65;7.13;;;10.10;86.50;;;;;;5065812;28;20032;-75
2020/12/16 10:38:46;;;;;;;14.23;7.80;;;10.10;86.60;;;;;;5065155;28;20513;-74
2020/12/16 10:41:12;;;;;;;13.10;7.40;;;10.10;86.60;;;;;;5067353;28;20530;-77
2020/12/16 10:43:38;;;;;;;12.45;7.07;;;10.20;86.50;;;;;;5062826;28;20032;-75
2020/12/16 10:46:07;;;;;;;10.10;7.05;;;10.30;86.00;;;;;;5064435;28;20060;-76
2020/12/16 10:48:33;;;;;;;9.70;6.82;;;10.30;85.80;;;;;;5063146;28;20070;-76
2020/12/16 10:50:58;;;;;;;10.90;6.05;;;10.20;85.80;;;;;;5064075;28;20028;-79
2020/12/16 10:53:25;;;;;;;12.73;6.07;;;10.20;85.80;;;;;;5053660;28;20041;-74
2020/12/16 10:55:52;;;;;;;12.10;6.25;;;10.20;85.90;;;;;;5059000;28;20029;-77
2020/12/16 10:58:18;;;;;;;13.02;6.85;;;10.20;86.30;;;;;;5057085;28;20040;-78
2020/12/16 11:00:44;;;;;;;11.80;6.25;;;10.30;85.80;;;;;;5058407;28;20053;-76
2020/12/16 11:03:09;;;;;;;12.68;7.18;;;10.20;86.00;;;;;;5065999;28;20605;-76
2020/12/16 11:05:35;;;;;;;13.93;6.97;;;10.20;86.10;;;;;;5066977;28;20041;-77
2020/12/16 11:08:01;;;;;;;12.18;6.72;;;10.20;86.10;;;;;;5057420;28;20630;-76
2020/12/16 11:10:27;;;;;;;12.25;6.00;;;10.30;86.20;;;;;;5066721;28;20044;-76
2020/12/16 11:12:52;;;;;;;12.02;6.78;;;10.20;85.90;;;;;;5059230;28;20047;-78
2020/12/16 11:15:18;;;;;;;11.05;6.97;;;10.30;86.00;;;;;;5055742;28;20507;-76
2020/12/16 11:17:43;;;;;;;13.80;6.68;;;10.40;85.90;;;;;;5067039;28;20111;-76
2020/12/16 11:20:09;;;;;;;13.60;6.63;;;10.40;85.70;;;;;;5059185;28;20056;-76
2020/12/16 11:22:37;;;;;;;13.88;6.63;;;10.40;85.70;;;;;;5064607;28;20029;-76
2020/12/16 11:25:04;;;;;;;11.52;6.22;;;10.40;85.70;;;;;;5060390;28;20690;-76
2020/12/16 11:27:30;;;;;;;15.82;6.13;;;10.40;85.60;;;;;;5058855;28;20025;-79
2020/12/16 11:29:55;;;;;;;12.65;6.95;;;10.30;85.60;;;;;;5056236;28;20053;-76
2020/12/16 11:32:21;;;;;;;12.77;6.40;;;10.30;85.90;;;;;;5056929;28;20037;-76
2020/12/16 11:34:47;;;;;;;12.98;6.55;;;10.40;85.90;;;;;;5060580;28;20032;-78
2020/12/16 11:37:14;;;;;;;12.00;6.47;;;10.30;85.90;;;;;;5057019;28;20048;-75
2020/12/16 11:39:41;;;;;;;12.35;7.50;;;10.20;86.30;;;;;;5062699;28;20040;-76
2020/12/16 11:42:07;;;;;;;11.95;6.32;;;10.30;86.30;;;;;;5062504;28;20062;-76
2020/12/16 11:44:33;;;;;;;12.05;6.43;;;10.30;86.20;;;;;;5061103;28;20071;-76
2020/12/16 11:46:58;;;;;;;11.38;6.38;;;10.30;86.20;;;;;;5056118;28;20025;-76
2020/12/16 11:49:26;;;;;;;11.35;6.85;;;10.30;86.20;;;;;;5059184;28;20467;-77
2020/12/16 11:51:52;;;;;;;13.48;6.35;;;10.20;86.40;;;;;;5055528;28;20072;-76
2020/12/16 11:54:18;;;;;;;13.00;7.35;;;10.30;86.10;;;;;;5047393;28;20040;-76
2020/12/16 11:56:45;;;;;;;11.85;8.13;;;10.30;86.10;;;;;;5048973;28;20032;-76
2020/12/16 11:59:10;;;;;;;12.48;6.28;;;10.40;86.30;;;;;;5062399;28;20064;-79
2020/12/16 12:01:38;;;;;;;11.73;6.43;;;10.50;86.10;;;;;;5062410;28;20502;-76
2020/12/16 12:04:04;;;;;;;9.93;5.88;;;10.60;86.00;;;;;;5063820;28;20135;-77
2020/12/16 12:06:29;;;;;;;8.75;5.38;;;10.60;85.60;;;;;;5060853;28;20119;-75
2020/12/16 12:08:55;;;;;;;10.75;5.97;;;10.70;85.30;;;;;;5064318;28;20052;-75
2020/12/16 12:11:21;;;;;;;12.32;6.15;;;10.80;85.10;;;;;;5064048;28;20045;-77
2020/12/16 12:13:46;;;;;;;13.48;6.35;;;10.80;85.10;;;;;;5061139;28;20107;-76
2020/12/16 12:16:14;;;;;;;11.90;6.45;;;10.80;85.10;;;;;;5053087;28;20041;-76
2020/12/16 12:18:42;;;;;;;9.52;6.20;;;11.00;85.10;;;;;;5044204;28;20463;-76
2020/12/16 12:21:09;;;;;;;9.32;5.57;;;11.10;84.80;;;;;;5039288;28;20507;-76
2020/12/16 12:23:35;;;;;;;12.45;5.82;;;11.00;84.70;;;;;;5042100;28;20049;-78
2020/12/16 12:26:02;;;;;;;12.05;6.20;;;11.00;84.80;;;;;;5042502;28;20040;-76
2020/12/16 12:28:28;;;;;;;11.10;6.55;;;11.00;84.60;;;;;;5037739;28;20045;-77
2020/12/16 12:30:53;;;;;;;12.13;6.38;;;10.90;84.70;;;;;;5039036;28;20176;-77
2020/12/16 12:33:19;;;;;;;11.05;6.97;;;10.80;85.20;;;;;;5039706;28;20040;-76
2020/12/16 12:35:46;;;;;;;12.35;7.25;;;10.80;85.30;;;;;;5045455;28;20112;-76
2020/12/16 12:38:11;;;;;;;11.23;6.55;;;10.70;85.80;;;;;;5044230;28;20348;-76
2020/12/16 12:40:37;;;;;;;11.15;6.75;;;10.70;85.60;;;;;;5042920;28;20040;-72
2020/12/16 12:43:03;;;;;;;15.55;7.55;;;10.60;85.90;;;;;;5039752;28;20156;-72
2020/12/16 12:45:28;;;;;;;10.75;6.68;;;10.60;86.20;;;;;;5044465;28;20040;-72